createdAt,value
2023-02-19T00:01:49.066Z,9.58
2023-02-19T00:04:21.765Z,9.58
2023-02-19T00:06:49.069Z,10.07
2023-02-19T00:09:17.059Z,9.65
2023-02-19T00:11:43.800Z,9.88
2023-02-19T00:14:11.470Z,9.20
2023-02-19T00:16:39.465Z,9.63
2023-02-19T00:19:08.245Z,9.43
2023-02-19T00:21:34.776Z,9.83
2023-02-19T00:24:03.641Z,10.02
2023-02-19T00:26:30.619Z,9.71
2023-02-19T00:28:58.318Z,9.93
2023-02-19T00:31:25.820Z,9.97
2023-02-19T00:33:54.507Z,9.73
2023-02-19T00:36:21.615Z,9.49
2023-02-19T00:38:48.796Z,9.83
2023-02-19T00:41:19.658Z,9.39
2023-02-19T00:43:55.187Z,9.96
2023-02-19T00:46:24.239Z,9.44
2023-02-19T00:48:52.612Z,9.51
2023-02-19T00:51:20.172Z,9.52
2023-02-19T00:53:46.620Z,9.14
2023-02-19T00:56:13.191Z,9.51
2023-02-19T00:58:39.783Z,9.48
2023-02-19T01:01:06.727Z,9.21
2023-02-19T01:03:34.169Z,9.95
2023-02-19T01:06:01.179Z,9.88
2023-02-19T01:08:28.234Z,9.31
2023-02-19T01:10:54.689Z,9.44
2023-02-19T01:13:21.243Z,9.20
2023-02-19T01:15:47.723Z,9.43
2023-02-19T01:18:14.203Z,9.56
2023-02-19T01:20:42.683Z,9.84
2023-02-19T01:23:11.258Z,9.98
2023-02-19T01:25:42.667Z,9.60
2023-02-19T01:28:10.484Z,9.48
2023-02-19T01:30:38.131Z,9.61
2023-02-19T01:33:08.391Z,10.04
2023-02-19T01:35:38.556Z,9.96
2023-02-19T01:38:05.131Z,9.37
2023-02-19T01:40:31.566Z,9.31
2023-02-19T01:42:57.998Z,8.76
2023-02-19T01:45:35.103Z,9.20
2023-02-19T01:48:09.416Z,8.84
2023-02-19T01:50:44.590Z,9.53
2023-02-19T01:53:12.361Z,9.67
2023-02-19T01:55:39.137Z,9.23
2023-02-19T01:58:05.996Z,9.23
2023-02-19T02:00:33.659Z,9.27
2023-02-19T02:03:00.766Z,9.50
2023-02-19T02:05:38.347Z,9.76
2023-02-19T02:08:23.579Z,9.25
2023-02-19T02:10:50.516Z,9.34
2023-02-19T02:13:17.337Z,9.23
2023-02-19T02:15:56.774Z,9.72
2023-02-19T02:18:29.547Z,9.72
2023-02-19T02:21:33.703Z,9.59
2023-02-19T02:24:05.530Z,9.63
2023-02-19T02:27:12.641Z,9.21
2023-02-19T02:30:05.555Z,9.54
2023-02-19T02:32:58.370Z,9.65
2023-02-19T02:35:28.517Z,9.55
2023-02-19T02:37:58.640Z,9.29
2023-02-19T02:40:25.482Z,9.09
2023-02-19T02:42:51.980Z,9.18
2023-02-19T02:45:36.878Z,9.83
2023-02-19T02:48:37.092Z,9.60
2023-02-19T02:51:10.093Z,9.72
2023-02-19T02:54:04.577Z,9.34
2023-02-19T02:56:31.203Z,9.52
2023-02-19T02:58:58.962Z,9.84
2023-02-19T03:01:48.542Z,9.59
2023-02-19T03:04:22.569Z,9.19
2023-02-19T03:06:49.807Z,9.57
2023-02-19T03:09:22.520Z,9.85
2023-02-19T03:12:08.666Z,9.74
2023-02-19T03:15:00.890Z,9.21
2023-02-19T03:18:08.238Z,9.72
2023-02-19T03:20:37.261Z,9.40
2023-02-19T03:23:05.257Z,9.42
2023-02-19T03:25:51.160Z,9.46
2023-02-19T03:28:20.123Z,9.27
2023-02-19T03:30:52.547Z,9.76
2023-02-19T03:33:22.739Z,9.47
2023-02-19T03:35:58.734Z,9.29
2023-02-19T03:38:30.121Z,9.86
2023-02-19T03:41:04.259Z,9.36
2023-02-19T03:43:54.016Z,9.68
2023-02-19T03:46:25.903Z,9.33
2023-02-19T03:48:57.225Z,9.05
2023-02-19T03:51:42.082Z,8.97
2023-02-19T03:54:29.264Z,9.73
2023-02-19T03:57:03.766Z,9.29
2023-02-19T03:59:32.808Z,9.76
2023-02-19T04:02:06.659Z,9.68
2023-02-19T04:04:39.363Z,9.18
2023-02-19T04:07:06.026Z,9.21
2023-02-19T04:09:41.852Z,9.28
2023-02-19T04:12:08.934Z,9.59
2023-02-19T04:14:47.564Z,8.86
2023-02-19T04:17:19.680Z,9.43
2023-02-19T04:19:48.489Z,9.35
2023-02-19T04:22:16.163Z,8.92
2023-02-19T04:24:48.306Z,9.13
2023-02-19T04:27:14.874Z,9.35
2023-02-19T04:29:41.466Z,8.93
2023-02-19T04:32:10.814Z,9.00
2023-02-19T04:34:37.314Z,9.26
2023-02-19T04:37:03.867Z,8.60
2023-02-19T04:39:30.455Z,8.89
2023-02-19T04:41:56.932Z,9.07
2023-02-19T04:44:23.442Z,8.88
2023-02-19T04:46:50.069Z,9.02
2023-02-19T04:49:16.549Z,8.91
2023-02-19T04:51:42.942Z,9.15
2023-02-19T04:54:09.501Z,9.33
2023-02-19T04:56:36.002Z,8.93
2023-02-19T04:59:02.632Z,9.02
2023-02-19T05:01:29.128Z,9.55
2023-02-19T05:03:55.598Z,9.16
2023-02-19T05:06:22.052Z,9.12
2023-02-19T05:08:48.686Z,9.25
2023-02-19T05:11:15.221Z,9.34
2023-02-19T05:13:42.727Z,9.13
2023-02-19T05:16:15.901Z,9.28
2023-02-19T05:18:43.338Z,9.34
2023-02-19T05:21:11.444Z,8.94
2023-02-19T05:23:38.769Z,9.69
2023-02-19T05:26:07.224Z,9.14
2023-02-19T05:28:33.956Z,9.16
2023-02-19T05:31:05.115Z,9.27
2023-02-19T05:33:31.551Z,9.01
2023-02-19T05:35:58.072Z,8.87
2023-02-19T05:38:24.711Z,8.83
2023-02-19T05:40:51.582Z,9.55
2023-02-19T05:43:18.039Z,8.98
2023-02-19T05:45:44.487Z,8.99
2023-02-19T05:48:12.873Z,8.94
2023-02-19T05:50:39.980Z,9.16
2023-02-19T05:53:06.594Z,9.24
2023-02-19T05:55:36.718Z,8.92
2023-02-19T05:58:03.549Z,8.81
2023-02-19T06:00:30.471Z,8.92
2023-02-19T06:02:56.877Z,8.78
2023-02-19T06:05:23.375Z,8.69
2023-02-19T06:07:50.514Z,8.64
2023-02-19T06:10:17.495Z,8.79
2023-02-19T06:12:44.067Z,8.75
2023-02-19T06:15:10.702Z,9.21
2023-02-19T06:17:37.200Z,8.71
2023-02-19T06:20:03.862Z,9.43
2023-02-19T06:22:31.410Z,9.05
2023-02-19T06:24:58.090Z,8.98
2023-02-19T06:27:24.525Z,9.07
2023-02-19T06:29:50.988Z,9.34
2023-02-19T06:32:17.598Z,8.97
2023-02-19T06:34:44.119Z,8.98
2023-02-19T06:37:10.553Z,9.15
2023-02-19T06:39:37.097Z,8.99
2023-02-19T06:42:03.717Z,8.64
2023-02-19T06:44:30.172Z,9.05
2023-02-19T06:46:56.684Z,8.67
2023-02-19T06:49:23.175Z,8.84
2023-02-19T06:51:49.621Z,8.83
2023-02-19T06:54:16.051Z,8.90
2023-02-19T06:56:46.085Z,9.14
2023-02-19T06:59:16.934Z,8.81
2023-02-19T07:01:43.910Z,9.18
2023-02-19T07:04:10.407Z,8.61
2023-02-19T07:06:38.810Z,9.33
2023-02-19T07:09:06.887Z,8.63
2023-02-19T07:11:34.832Z,8.71
2023-02-19T07:14:03.537Z,8.39
2023-02-19T07:16:30.410Z,8.53
2023-02-19T07:18:57.985Z,9.39
2023-02-19T07:21:24.484Z,9.35
2023-02-19T07:23:51.014Z,9.28
2023-02-19T07:26:19.776Z,9.31
2023-02-19T07:28:48.233Z,8.54
2023-02-19T07:31:17.583Z,8.83
2023-02-19T07:33:45.187Z,9.39
2023-02-19T07:36:12.123Z,8.96
2023-02-19T07:38:38.623Z,8.70
2023-02-19T07:41:05.760Z,8.59
2023-02-19T07:43:34.708Z,8.54
2023-02-19T07:46:09.845Z,8.69
2023-02-19T07:48:37.319Z,8.52
2023-02-19T07:51:05.466Z,8.59
2023-02-19T07:53:33.572Z,9.22
2023-02-19T07:56:04.386Z,8.99
2023-02-19T07:58:31.616Z,9.15
2023-02-19T08:00:58.395Z,9.07
2023-02-19T08:03:24.948Z,8.74
2023-02-19T08:05:53.806Z,9.16
2023-02-19T08:08:20.339Z,8.46
2023-02-19T08:11:05.511Z,8.79
2023-02-19T08:13:32.200Z,8.51
2023-02-19T08:16:15.957Z,9.55
2023-02-19T08:18:44.530Z,8.84
2023-02-19T08:21:11.626Z,8.56
2023-02-19T08:23:38.561Z,9.19
2023-02-19T08:26:05.550Z,8.42
2023-02-19T08:28:32.409Z,9.33
2023-02-19T08:31:01.593Z,9.20
2023-02-19T08:33:28.236Z,9.36
2023-02-19T08:35:55.111Z,8.60
2023-02-19T08:38:21.759Z,8.40
2023-02-19T08:40:48.243Z,8.89
2023-02-19T08:43:16.986Z,8.81
2023-02-19T08:45:45.137Z,9.09
2023-02-19T08:48:11.982Z,8.62
2023-02-19T08:50:38.696Z,9.34
2023-02-19T08:53:06.231Z,8.88
2023-02-19T08:55:33.280Z,8.58
2023-02-19T08:58:04.117Z,9.03
2023-02-19T09:00:30.550Z,8.73
2023-02-19T09:02:58.232Z,9.49
2023-02-19T09:05:24.775Z,8.98
2023-02-19T09:07:51.233Z,8.94
2023-02-19T09:10:17.683Z,9.02
2023-02-19T09:12:44.098Z,8.97
2023-02-19T09:15:10.593Z,9.80
2023-02-19T09:17:37.062Z,8.99
2023-02-19T09:20:04.153Z,9.02
2023-02-19T09:22:30.701Z,9.28
2023-02-19T09:24:57.105Z,9.26
2023-02-19T09:27:23.519Z,9.53
2023-02-19T09:29:49.948Z,8.89
2023-02-19T09:32:19.140Z,9.16
2023-02-19T09:34:45.832Z,8.97
2023-02-19T09:37:12.311Z,9.46
2023-02-19T09:39:39.846Z,9.50
2023-02-19T09:42:15.908Z,9.80
2023-02-19T09:44:44.713Z,9.16
2023-02-19T09:47:19.937Z,9.09
2023-02-19T09:49:52.140Z,9.17
2023-02-19T09:52:41.512Z,9.24
2023-02-19T09:55:31.660Z,9.26
2023-02-19T09:57:59.503Z,9.33
2023-02-19T10:00:28.032Z,8.91
2023-02-19T10:03:05.855Z,8.92
2023-02-19T10:05:33.563Z,8.88
2023-02-19T10:08:00.425Z,8.64
2023-02-19T10:10:30.305Z,8.93
2023-02-19T10:13:10.282Z,9.01
2023-02-19T10:15:46.277Z,9.16
2023-02-19T10:18:12.900Z,8.82
2023-02-19T10:20:40.265Z,9.49
2023-02-19T10:23:08.144Z,8.40
2023-02-19T10:25:42.545Z,8.37
2023-02-19T10:28:22.164Z,9.11
2023-02-19T10:30:54.423Z,8.54
2023-02-19T10:33:22.132Z,8.48
2023-02-19T10:36:06.694Z,8.63
2023-02-19T10:38:39.447Z,8.90
2023-02-19T10:41:17.692Z,9.54
2023-02-19T10:43:57.420Z,8.66
2023-02-19T10:46:33.582Z,8.92
2023-02-19T10:49:20.175Z,9.20
2023-02-19T10:51:47.990Z,9.12
2023-02-19T10:54:20.932Z,8.81
2023-02-19T10:56:47.488Z,8.40
2023-02-19T10:59:28.645Z,8.49
2023-02-19T11:01:58.210Z,9.37
2023-02-19T11:04:26.623Z,8.52
2023-02-19T11:06:53.247Z,9.26
2023-02-19T11:09:22.628Z,9.34
2023-02-19T11:11:54.381Z,9.38
2023-02-19T11:14:24.186Z,8.21
2023-02-19T11:16:53.356Z,9.40
2023-02-19T11:19:48.585Z,9.26
2023-02-19T11:22:35.745Z,9.31
2023-02-19T11:25:07.315Z,9.33
2023-02-19T11:27:33.796Z,8.96
2023-02-19T11:30:33.973Z,9.40
2023-02-19T11:33:20.274Z,9.46
2023-02-19T11:35:48.198Z,9.37
2023-02-19T11:38:17.079Z,9.47
2023-02-19T11:41:03.221Z,9.45
2023-02-19T11:44:12.241Z,9.28
2023-02-19T11:46:50.856Z,9.36
2023-02-19T11:49:27.038Z,9.15
2023-02-19T11:52:12.232Z,8.91
2023-02-19T11:54:49.250Z,9.15
2023-02-19T11:57:38.544Z,9.16
2023-02-19T12:00:27.911Z,9.13
2023-02-19T12:03:17.896Z,9.10
2023-02-19T12:06:00.086Z,9.19
2023-02-19T12:09:02.921Z,9.05
2023-02-19T12:11:40.437Z,8.49
2023-02-19T12:14:39.792Z,8.93
2023-02-19T12:17:33.965Z,8.68
2023-02-19T12:20:14.076Z,8.79
2023-02-19T12:22:50.105Z,8.11
2023-02-19T12:25:25.379Z,8.55
2023-02-19T12:28:01.389Z,8.65
2023-02-19T12:30:46.669Z,8.69
2023-02-19T12:33:19.182Z,8.77
2023-02-19T12:36:20.894Z,8.50
2023-02-19T12:39:09.034Z,8.71
2023-02-19T12:41:49.896Z,8.49
2023-02-19T12:44:56.129Z,8.52
2023-02-19T12:58:05.854Z,9.03
2023-02-19T13:00:58.912Z,8.98
2023-02-19T14:51:42.354Z,9.71
2023-02-19T14:54:16.555Z,9.77
2023-02-19T14:56:45.304Z,9.75
2023-02-19T14:59:11.647Z,9.95
2023-02-19T15:01:38.829Z,9.96
2023-02-19T15:04:05.738Z,9.70
2023-02-19T15:06:34.450Z,9.59
2023-02-19T15:09:05.406Z,9.58
2023-02-19T15:11:32.520Z,9.14
2023-02-19T15:14:02.210Z,8.98
2023-02-19T15:16:29.689Z,8.97
2023-02-19T15:18:58.175Z,9.02
2023-02-19T15:21:26.507Z,9.12
2023-02-19T15:23:58.561Z,9.09
2023-02-19T15:26:35.879Z,8.52
2023-02-19T15:29:11.087Z,8.99
2023-02-19T15:31:49.501Z,8.79
2023-02-19T15:34:27.347Z,8.66
2023-02-19T15:36:59.040Z,8.61
2023-02-19T15:39:41.922Z,8.82
2023-02-19T15:42:11.036Z,8.78
2023-02-19T15:44:52.214Z,8.35
2023-02-19T15:47:51.791Z,8.53
2023-02-19T15:50:32.044Z,8.48
2023-02-19T15:53:09.131Z,8.37
2023-02-19T15:55:38.545Z,8.48
2023-02-19T15:58:09.199Z,8.40
2023-02-19T16:00:41.040Z,8.54
2023-02-19T16:03:22.954Z,8.56
2023-02-19T16:06:04.759Z,8.45
2023-02-19T16:08:36.514Z,8.41
2023-02-19T16:11:07.253Z,8.34
2023-02-19T16:13:34.714Z,8.33
2023-02-19T16:16:06.706Z,8.36
2023-02-19T16:18:33.468Z,8.02
2023-02-19T16:21:00.435Z,8.39
2023-02-19T16:23:27.327Z,8.22
2023-02-19T16:26:01.695Z,8.21
2023-02-19T16:28:29.710Z,7.88
2023-02-19T16:30:57.464Z,8.19
2023-02-19T16:33:35.665Z,8.23
2023-02-19T16:36:28.811Z,7.98
2023-02-19T16:38:58.927Z,7.70
2023-02-19T16:41:25.295Z,7.85
2023-02-19T16:43:51.711Z,7.73
2023-02-19T16:46:18.335Z,7.66
2023-02-19T16:48:44.816Z,7.64
2023-02-19T16:51:17.429Z,7.33
2023-02-19T16:53:43.861Z,7.61
2023-02-19T16:56:16.269Z,7.59
2023-02-19T16:58:42.754Z,7.70
2023-02-19T17:01:09.767Z,7.29
2023-02-19T17:03:38.101Z,7.86
2023-02-19T17:06:04.943Z,7.77
2023-02-19T17:08:36.941Z,7.83
2023-02-19T17:11:06.716Z,7.63
2023-02-19T17:13:33.306Z,7.71
2023-02-19T17:15:59.809Z,7.89
2023-02-19T17:18:26.328Z,8.01
2023-02-19T17:21:12.537Z,7.95
2023-02-19T17:23:39.136Z,7.83
2023-02-19T17:26:05.536Z,7.69
2023-02-19T17:28:31.968Z,7.76
2023-02-19T17:30:58.416Z,7.79
2023-02-19T17:33:24.865Z,7.90
2023-02-19T17:35:51.424Z,7.79
2023-02-19T17:38:17.862Z,7.87
2023-02-19T17:40:45.191Z,7.38
2023-02-19T17:43:11.591Z,7.61
2023-02-19T17:45:38.421Z,7.86
2023-02-19T17:48:05.071Z,7.42
2023-02-19T17:50:32.013Z,7.85
2023-02-19T17:52:58.854Z,7.79
2023-02-19T17:55:26.595Z,7.99
2023-02-19T17:57:53.383Z,7.75
2023-02-19T18:00:22.835Z,7.90
2023-02-19T18:02:49.365Z,7.52
2023-02-19T18:05:16.151Z,8.01
2023-02-19T18:07:43.404Z,7.19
2023-02-19T18:10:10.493Z,7.93
2023-02-19T18:12:38.213Z,7.71
2023-02-19T18:15:05.226Z,7.50
2023-02-19T18:17:31.668Z,7.69
2023-02-19T18:19:58.081Z,7.34
2023-02-19T18:22:24.735Z,7.75
2023-02-19T18:24:53.250Z,7.90
2023-02-19T18:35:40.692Z,7.49
2023-02-19T18:38:07.144Z,7.40
2023-02-19T18:40:33.750Z,7.47
2023-02-19T18:43:00.292Z,7.27
2023-02-19T18:45:27.535Z,7.11
2023-02-19T18:47:54.174Z,7.20
2023-02-19T18:50:20.620Z,6.74
2023-02-19T18:52:47.150Z,7.28
2023-02-19T18:55:13.673Z,7.16
2023-02-19T18:57:40.106Z,7.00
2023-02-19T19:00:07.566Z,7.01
2023-02-19T19:02:48.272Z,7.03
2023-02-19T19:05:22.670Z,6.82
2023-02-19T19:07:51.026Z,6.74
2023-02-19T19:10:18.134Z,6.21
2023-02-19T19:12:44.660Z,6.65
2023-02-19T19:15:11.239Z,6.54
2023-02-19T19:17:38.709Z,6.58
2023-02-19T19:20:05.763Z,6.38
2023-02-19T19:22:32.158Z,5.91
2023-02-19T19:24:59.930Z,5.97
2023-02-19T19:27:26.355Z,5.99
2023-02-19T19:29:52.813Z,6.40
2023-02-19T19:32:19.410Z,6.42
2023-02-19T19:34:45.887Z,6.30
2023-02-19T19:37:12.415Z,6.31
2023-02-19T19:39:38.814Z,6.02
2023-02-19T19:42:07.785Z,6.28
2023-02-19T19:44:34.245Z,5.92
2023-02-19T19:47:00.680Z,6.21
2023-02-19T19:49:27.107Z,6.15
2023-02-19T19:51:53.490Z,6.13
2023-02-19T19:54:20.986Z,5.41
2023-02-19T19:56:47.786Z,5.94
2023-02-19T19:59:16.025Z,5.65
2023-02-19T20:01:53.634Z,5.93
2023-02-19T20:04:22.572Z,6.09
2023-02-19T20:06:49.461Z,6.01
2023-02-19T20:09:16.733Z,6.05
2023-02-19T20:11:47.708Z,6.09
2023-02-19T20:14:14.635Z,6.14
2023-02-19T20:16:42.671Z,6.12
2023-02-19T20:19:10.411Z,6.06
2023-02-19T20:26:08.819Z,6.01
2023-02-19T20:28:35.273Z,5.96
2023-02-19T20:31:01.748Z,5.44
2023-02-19T20:33:28.242Z,5.52
2023-02-19T20:35:56.683Z,5.51
2023-02-19T20:38:23.235Z,5.77
2023-02-19T20:52:06.739Z,5.84
2023-02-19T20:54:34.404Z,5.88
2023-02-19T20:57:03.312Z,5.92
2023-02-19T21:06:31.967Z,5.77
2023-02-19T21:08:58.608Z,5.68
2023-02-19T21:22:24.154Z,5.57
2023-02-19T21:24:53.000Z,5.66
2023-02-19T21:27:19.992Z,5.74
2023-02-19T21:29:47.508Z,5.72
2023-02-19T21:32:14.174Z,5.73
2023-02-19T21:34:40.704Z,5.70
2023-02-19T21:37:07.214Z,5.73
2023-02-19T21:43:46.232Z,5.62
2023-02-19T21:46:18.111Z,5.64
2023-02-19T21:48:47.818Z,5.39
2023-02-19T21:51:14.476Z,5.66
2023-02-19T21:53:40.853Z,5.66
2023-02-19T21:56:08.410Z,5.74
2023-02-19T21:58:34.958Z,5.79
2023-02-19T22:01:01.655Z,5.25
2023-02-19T22:03:28.256Z,5.80
2023-02-19T22:05:55.021Z,5.16
2023-02-19T22:08:21.420Z,5.68
2023-02-19T22:10:47.829Z,5.84
2023-02-19T22:13:14.207Z,5.85
2023-02-19T22:15:40.633Z,5.89
2023-02-19T22:18:07.036Z,5.96
2023-02-19T22:20:34.612Z,5.56
2023-02-19T22:23:01.014Z,5.87
2023-02-19T22:25:27.395Z,6.08
2023-02-19T22:27:53.830Z,6.00
2023-02-19T22:30:20.619Z,6.19
2023-02-19T22:32:47.144Z,6.00
2023-02-19T22:35:15.670Z,6.09
2023-02-19T22:37:42.250Z,6.10
2023-02-19T22:40:08.950Z,5.93
2023-02-19T22:42:36.094Z,5.91
2023-02-19T22:45:02.703Z,6.21
2023-02-19T22:47:29.131Z,6.07
2023-02-19T22:49:55.518Z,6.19
2023-02-19T22:52:22.062Z,6.14
2023-02-19T22:54:48.438Z,6.32
2023-02-19T22:57:14.870Z,6.13
2023-02-19T22:59:41.267Z,6.23
2023-02-19T23:02:07.657Z,6.07
2023-02-19T23:04:34.284Z,6.15
2023-02-19T23:07:00.940Z,6.43
2023-02-19T23:09:28.680Z,6.59
2023-02-19T23:12:06.335Z,6.58
2023-02-19T23:14:32.827Z,6.44
2023-02-19T23:16:59.403Z,6.61
2023-02-19T23:19:26.386Z,6.75
2023-02-19T23:21:53.239Z,6.58
2023-02-19T23:24:20.143Z,6.80
2023-02-19T23:26:49.226Z,6.82
2023-02-19T23:29:21.034Z,6.84
2023-02-19T23:31:47.637Z,6.58
2023-02-19T23:34:14.640Z,6.85
2023-02-19T23:36:42.299Z,6.92
2023-02-19T23:39:13.541Z,6.81
2023-02-19T23:41:45.922Z,6.65
2023-02-19T23:44:12.334Z,6.88
2023-02-19T23:46:38.794Z,6.96
2023-02-19T23:49:05.255Z,6.92
2023-02-19T23:51:31.709Z,7.04
2023-02-19T23:53:58.178Z,6.95
2023-02-19T23:56:28.953Z,7.07
2023-02-19T23:58:56.025Z,6.90
